createdAt,value
2022-10-15T00:00:09.587Z,5.63
2022-10-15T00:01:15.497Z,5.69
2022-10-15T00:02:18.594Z,5.75
2022-10-15T00:03:22.685Z,5.80
2022-10-15T00:04:25.758Z,5.85
2022-10-15T00:05:30.015Z,5.90
2022-10-15T00:06:33.163Z,5.94
2022-10-15T00:07:37.296Z,5.99
2022-10-15T00:08:42.053Z,6.06
2022-10-15T00:09:46.006Z,6.10
2022-10-15T00:10:48.975Z,6.16
2022-10-15T00:11:53.076Z,6.20
2022-10-15T00:12:56.153Z,6.26
2022-10-15T00:14:01.689Z,6.32
2022-10-15T00:15:05.563Z,6.38
2022-10-15T00:16:10.717Z,6.44
2022-10-15T00:17:13.641Z,6.48
2022-10-15T00:18:17.583Z,6.55
2022-10-15T00:19:21.495Z,6.59
2022-10-15T00:20:24.376Z,6.64
2022-10-15T00:21:28.752Z,6.70
2022-10-15T00:22:31.665Z,6.74
2022-10-15T00:23:35.814Z,6.78
2022-10-15T00:24:40.356Z,6.84
2022-10-15T00:25:44.356Z,6.87
2022-10-15T00:26:47.224Z,6.92
2022-10-15T00:27:51.185Z,6.94
2022-10-15T00:28:55.972Z,6.98
2022-10-15T00:30:00.689Z,7.00
2022-10-15T00:31:06.160Z,7.05
2022-10-15T00:32:10.137Z,7.08
2022-10-15T00:33:15.425Z,7.10
2022-10-15T00:34:19.447Z,7.13
2022-10-15T00:35:23.102Z,7.14
2022-10-15T00:36:28.626Z,7.16
2022-10-15T00:37:31.558Z,7.17
2022-10-15T00:38:35.624Z,7.19
2022-10-15T00:39:39.974Z,7.20
2022-10-15T00:40:44.337Z,7.21
2022-10-15T00:41:47.387Z,7.23
2022-10-15T00:42:52.437Z,7.24
2022-10-15T00:43:56.776Z,7.24
2022-10-15T00:45:01.471Z,7.23
2022-10-15T00:46:04.563Z,7.22
2022-10-15T00:47:15.275Z,7.22
2022-10-15T00:48:18.205Z,7.23
2022-10-15T00:49:26.761Z,7.26
2022-10-15T00:50:29.747Z,7.28
2022-10-15T00:51:38.426Z,7.31
2022-10-15T00:52:45.215Z,7.35
2022-10-15T00:53:50.148Z,7.37
2022-10-15T00:54:58.755Z,7.40
2022-10-15T00:56:03.434Z,7.42
2022-10-15T00:57:06.781Z,7.45
2022-10-15T00:59:22.354Z,7.49
2022-10-15T01:00:26.368Z,7.51
2022-10-15T01:01:30.108Z,7.54
2022-10-15T01:02:34.175Z,7.58
2022-10-15T01:03:37.186Z,7.61
2022-10-15T01:04:42.476Z,7.65
2022-10-15T01:05:49.268Z,7.67
2022-10-15T01:06:52.230Z,7.70
2022-10-15T01:07:56.234Z,7.72
2022-10-15T01:09:00.146Z,7.75
2022-10-15T01:10:07.184Z,7.76
2022-10-15T01:11:18.497Z,7.79
2022-10-15T01:12:30.516Z,7.80
2022-10-15T01:13:36.558Z,7.80
2022-10-15T01:14:47.427Z,7.78
2022-10-15T01:15:55.600Z,7.79
2022-10-15T01:17:08.206Z,7.80
2022-10-15T01:18:14.866Z,7.79
2022-10-15T01:19:30.217Z,7.79
2022-10-15T01:20:57.466Z,7.76
2022-10-15T01:22:03.746Z,7.72
2022-10-15T01:23:28.205Z,7.70
2022-10-15T01:25:00.293Z,7.66
2022-10-15T01:26:19.049Z,7.60
2022-10-15T01:27:35.722Z,7.52
2022-10-15T01:28:44.925Z,7.47
2022-10-15T01:30:13.144Z,7.40
2022-10-15T01:31:22.284Z,7.33
2022-10-15T01:32:29.806Z,7.25
2022-10-15T01:33:38.846Z,7.19
2022-10-15T01:34:44.703Z,7.15
2022-10-15T01:35:51.337Z,7.10
2022-10-15T01:36:59.374Z,7.05
2022-10-15T01:38:09.907Z,7.00
2022-10-15T01:39:17.283Z,6.95
2022-10-15T01:40:22.886Z,6.90
2022-10-15T01:41:30.516Z,6.83
2022-10-15T01:42:38.114Z,6.77
2022-10-15T01:43:46.567Z,6.72
2022-10-15T01:45:08.117Z,6.65
2022-10-15T01:46:28.284Z,6.58
2022-10-15T01:47:44.671Z,6.52
2022-10-15T01:48:49.448Z,6.49
2022-10-15T01:49:53.976Z,6.47
2022-10-15T01:51:01.964Z,6.45
2022-10-15T01:52:11.606Z,6.42
2022-10-15T01:53:16.588Z,6.39
2022-10-15T01:54:21.397Z,6.38
2022-10-15T01:55:25.768Z,6.36
2022-10-15T01:56:31.063Z,6.35
2022-10-15T01:57:35.016Z,6.31
2022-10-15T01:58:40.677Z,6.31
2022-10-15T01:59:44.345Z,6.30
2022-10-15T02:00:49.137Z,6.30
2022-10-15T02:01:56.161Z,6.31
2022-10-15T02:03:02.398Z,6.33
2022-10-15T02:04:19.281Z,6.36
2022-10-15T02:05:27.936Z,6.38
2022-10-15T02:06:34.160Z,6.39
2022-10-15T02:07:45.115Z,6.42
2022-10-15T02:08:56.984Z,6.44
2022-10-15T02:10:07.857Z,6.48
2022-10-15T02:11:12.879Z,6.51
2022-10-15T02:12:32.058Z,6.58
2022-10-15T02:13:45.596Z,6.61
2022-10-15T02:14:54.846Z,6.65
2022-10-15T02:16:08.546Z,6.70
2022-10-15T02:17:14.503Z,6.73
2022-10-15T02:18:20.994Z,6.76
2022-10-15T02:19:30.276Z,6.81
2022-10-15T02:20:43.423Z,6.84
2022-10-15T02:21:48.416Z,6.88
2022-10-15T02:22:58.276Z,6.92
2022-10-15T02:24:08.115Z,6.97
2022-10-15T02:25:17.016Z,7.00
2022-10-15T02:26:22.066Z,7.05
2022-10-15T02:27:26.466Z,7.08
2022-10-15T02:28:30.318Z,7.11
2022-10-15T02:29:36.955Z,7.15
2022-10-15T02:30:40.114Z,7.17
2022-10-15T02:31:49.185Z,7.17
2022-10-15T02:32:56.836Z,7.18
2022-10-15T02:34:04.476Z,7.20
2022-10-15T02:35:08.804Z,7.20
2022-10-15T02:36:16.643Z,7.21
2022-10-15T02:37:21.814Z,7.20
2022-10-15T02:38:27.215Z,7.21
2022-10-15T02:39:30.578Z,7.22
2022-10-15T02:40:36.907Z,7.24
2022-10-15T02:41:40.397Z,7.24
2022-10-15T02:42:47.125Z,7.25
2022-10-15T02:43:50.136Z,7.26
2022-10-15T02:44:54.865Z,7.27
2022-10-15T02:45:57.833Z,7.24
2022-10-15T02:47:02.721Z,7.23
2022-10-15T02:48:08.441Z,7.23
2022-10-15T02:49:12.595Z,7.20
2022-10-15T02:50:15.618Z,7.17
2022-10-15T02:51:19.645Z,7.15
2022-10-15T02:52:22.777Z,7.13
2022-10-15T02:53:26.940Z,7.11
2022-10-15T02:54:30.574Z,7.12
2022-10-15T02:55:37.802Z,7.12
2022-10-15T02:56:40.762Z,7.12
2022-10-15T02:57:45.444Z,7.12
2022-10-15T02:58:48.516Z,7.14
2022-10-15T02:59:52.497Z,7.17
2022-10-15T03:00:55.856Z,7.17
2022-10-15T03:01:59.906Z,7.17
2022-10-15T03:03:03.975Z,7.17
2022-10-15T03:04:09.548Z,7.18
2022-10-15T03:05:13.464Z,7.17
2022-10-15T03:06:17.636Z,7.15
2022-10-15T03:07:21.036Z,7.13
2022-10-15T03:08:26.125Z,7.10
2022-10-15T03:09:29.346Z,7.07
2022-10-15T03:10:33.324Z,7.04
2022-10-15T03:11:36.396Z,7.02
2022-10-15T03:12:40.288Z,7.00
2022-10-15T03:13:43.371Z,6.98
2022-10-15T03:14:47.396Z,6.96
2022-10-15T03:15:50.684Z,6.94
2022-10-15T03:16:54.767Z,6.92
2022-10-15T03:17:57.745Z,6.90
2022-10-15T03:19:01.968Z,6.88
2022-10-15T03:20:07.354Z,6.86
2022-10-15T03:21:14.554Z,6.82
2022-10-15T03:22:17.874Z,6.78
2022-10-15T03:23:30.765Z,6.76
2022-10-15T03:24:49.585Z,6.73
2022-10-15T03:25:59.684Z,6.70
2022-10-15T03:27:03.096Z,6.70
2022-10-15T03:28:07.306Z,6.69
2022-10-15T03:29:13.896Z,6.67
2022-10-15T03:30:31.613Z,6.63
2022-10-15T03:31:34.724Z,6.61
2022-10-15T03:32:41.047Z,6.59
2022-10-15T03:33:44.041Z,6.57
2022-10-15T03:34:48.061Z,6.55
2022-10-15T03:35:54.756Z,6.49
2022-10-15T03:36:59.330Z,6.46
2022-10-15T03:38:02.314Z,6.44
2022-10-15T03:39:08.485Z,6.41
2022-10-15T03:40:14.601Z,6.38
2022-10-15T03:41:20.426Z,6.37
2022-10-15T03:42:24.960Z,6.34
2022-10-15T03:43:29.176Z,6.35
2022-10-15T03:44:36.406Z,6.35
2022-10-15T03:45:45.836Z,6.36
2022-10-15T03:46:57.920Z,6.35
2022-10-15T03:48:06.994Z,6.34
2022-10-15T03:49:10.994Z,6.32
2022-10-15T03:50:15.157Z,6.29
2022-10-15T03:51:23.463Z,6.27
2022-10-15T03:52:35.954Z,6.24
2022-10-15T03:53:39.004Z,6.22
2022-10-15T03:54:43.575Z,6.22
2022-10-15T03:55:47.543Z,6.20
2022-10-15T03:56:52.174Z,6.19
2022-10-15T03:58:08.892Z,6.17
2022-10-15T03:59:17.658Z,6.14
2022-10-15T04:00:26.687Z,6.12
2022-10-15T04:01:35.637Z,6.10
2022-10-15T04:02:38.698Z,6.08
2022-10-15T04:03:44.864Z,6.05
2022-10-15T04:04:47.896Z,5.98
2022-10-15T04:05:54.154Z,5.96
2022-10-15T04:07:02.545Z,5.94
2022-10-15T04:08:08.500Z,5.92
2022-10-15T04:09:15.798Z,5.89
2022-10-15T04:10:19.859Z,5.87
2022-10-15T04:11:22.814Z,5.86
2022-10-15T04:12:36.916Z,5.83
2022-10-15T04:13:39.975Z,5.82
2022-10-15T04:14:44.094Z,5.79
2022-10-15T04:15:47.157Z,5.78
2022-10-15T04:16:51.347Z,5.77
2022-10-15T04:17:59.048Z,5.76
2022-10-15T04:19:07.348Z,5.74
2022-10-15T04:20:13.191Z,5.70
2022-10-15T04:21:21.743Z,5.70
2022-10-15T04:22:33.408Z,5.69
2022-10-15T04:23:38.274Z,5.68
2022-10-15T04:25:11.500Z,5.67
2022-10-15T04:26:14.399Z,5.67
2022-10-15T04:27:18.450Z,5.67
2022-10-15T04:28:21.448Z,5.67
2022-10-15T04:29:25.514Z,5.68
2022-10-15T04:30:29.704Z,5.67
2022-10-15T04:31:37.736Z,5.67
2022-10-15T04:32:41.338Z,5.67
2022-10-15T04:33:45.646Z,5.67
2022-10-15T04:34:49.537Z,5.69
2022-10-15T04:36:02.341Z,5.72
2022-10-15T04:37:26.798Z,5.74
2022-10-15T04:38:31.235Z,5.74
2022-10-15T04:39:38.173Z,5.74
2022-10-15T04:40:41.337Z,5.78
2022-10-15T04:41:45.407Z,5.80
2022-10-15T04:42:50.534Z,5.80
2022-10-15T04:43:55.768Z,5.80
2022-10-15T04:44:58.769Z,5.81
2022-10-15T04:46:05.161Z,5.81
2022-10-15T04:47:08.165Z,5.79
2022-10-15T04:48:24.615Z,5.78
2022-10-15T04:49:27.586Z,5.76
2022-10-15T04:50:32.351Z,5.74
2022-10-15T04:51:55.705Z,5.70
2022-10-15T04:53:07.334Z,5.69
2022-10-15T04:54:17.188Z,5.69
2022-10-15T04:55:32.715Z,5.68
2022-10-15T04:56:38.504Z,5.68
2022-10-15T04:57:41.404Z,5.68
2022-10-15T04:58:47.114Z,5.70
2022-10-15T04:59:56.877Z,5.74
2022-10-15T05:01:01.896Z,5.76
2022-10-15T05:02:10.764Z,5.81
2022-10-15T05:03:14.317Z,5.92
2022-10-15T05:04:26.971Z,6.10
2022-10-15T05:05:29.998Z,6.27
2022-10-15T05:06:36.547Z,6.45
2022-10-15T05:08:01.497Z,6.68
2022-10-15T05:09:05.639Z,6.85
2022-10-15T05:10:11.482Z,6.98
2022-10-15T05:11:16.035Z,7.11
2022-10-15T05:12:20.684Z,7.22
2022-10-15T05:13:24.035Z,7.31
2022-10-15T05:14:28.417Z,7.43
2022-10-15T05:15:50.567Z,7.53
2022-10-15T05:16:57.891Z,7.62
2022-10-15T05:18:02.787Z,7.70
2022-10-15T05:19:14.875Z,7.76
2022-10-15T05:20:18.124Z,7.83
2022-10-15T05:21:23.244Z,7.89
2022-10-15T05:22:30.114Z,7.95
2022-10-15T05:23:37.147Z,8.02
2022-10-15T05:24:59.496Z,8.06
2022-10-15T05:26:12.307Z,8.13
2022-10-15T05:27:16.334Z,8.16
2022-10-15T05:28:19.365Z,8.20
2022-10-15T05:29:23.515Z,8.24
2022-10-15T05:30:26.506Z,8.26
2022-10-15T05:31:32.656Z,8.28
2022-10-15T05:33:02.646Z,8.28
2022-10-15T05:34:09.112Z,8.31
2022-10-15T05:35:23.283Z,8.38
2022-10-15T05:36:31.915Z,8.43
2022-10-15T05:37:36.104Z,8.51
2022-10-15T05:38:39.875Z,8.58
2022-10-15T05:39:43.974Z,8.68
2022-10-15T05:40:49.366Z,8.77
2022-10-15T05:41:58.654Z,8.87
2022-10-15T05:43:19.965Z,8.99
2022-10-15T05:44:25.742Z,9.08
2022-10-15T05:45:28.713Z,9.16
2022-10-15T05:46:38.530Z,9.23
2022-10-15T05:47:41.518Z,9.30
2022-10-15T05:48:55.769Z,9.38
2022-10-15T05:49:58.884Z,9.43
2022-10-15T05:51:09.707Z,9.48
2022-10-15T05:52:12.807Z,9.55
2022-10-15T05:53:55.605Z,9.67
2022-10-15T05:54:58.576Z,9.73
2022-10-15T05:56:02.534Z,9.78
2022-10-15T05:57:08.625Z,9.82
2022-10-15T05:58:12.626Z,9.88
2022-10-15T05:59:15.616Z,9.93
2022-10-15T06:00:19.624Z,9.99
2022-10-15T06:01:29.564Z,10.07
2022-10-15T06:02:32.612Z,10.14
2022-10-15T06:03:36.965Z,10.22
2022-10-15T06:04:39.856Z,10.31
2022-10-15T06:05:43.998Z,10.39
2022-10-15T06:06:47.033Z,10.49
2022-10-15T06:07:50.984Z,10.57
2022-10-15T06:08:55.735Z,10.65
2022-10-15T06:09:58.654Z,10.71
2022-10-15T06:11:09.354Z,10.77
2022-10-15T06:12:13.919Z,10.82
2022-10-15T06:13:18.129Z,10.85
2022-10-15T06:14:22.875Z,10.88
2022-10-15T06:15:25.795Z,10.92
2022-10-15T06:16:30.111Z,10.95
2022-10-15T06:17:33.326Z,10.99
2022-10-15T06:18:38.736Z,11.02
2022-10-15T06:19:41.694Z,11.05
2022-10-15T06:20:45.991Z,11.07
2022-10-15T06:21:51.516Z,11.11
2022-10-15T06:22:58.766Z,11.14
2022-10-15T06:24:03.137Z,11.16
2022-10-15T06:25:11.197Z,11.19
2022-10-15T06:26:14.337Z,11.22
2022-10-15T06:27:20.588Z,11.27
2022-10-15T06:28:23.770Z,11.29
2022-10-15T06:29:28.043Z,11.33
2022-10-15T06:30:32.331Z,11.38
2022-10-15T06:31:36.383Z,11.42
2022-10-15T06:32:39.555Z,11.46
2022-10-15T06:33:43.621Z,11.52
2022-10-15T06:34:46.965Z,11.58
2022-10-15T06:35:51.064Z,11.64
2022-10-15T06:36:54.046Z,11.69
2022-10-15T06:38:03.165Z,11.77
2022-10-15T06:39:07.034Z,11.84
2022-10-15T06:40:12.177Z,11.91
2022-10-15T06:41:19.094Z,12.01
2022-10-15T06:42:24.761Z,12.09
2022-10-15T06:43:34.799Z,12.16
2022-10-15T06:44:39.856Z,12.23
2022-10-15T06:45:43.605Z,12.31
2022-10-15T06:46:53.783Z,12.39
2022-10-15T06:47:56.835Z,12.44
2022-10-15T06:49:01.089Z,12.51
2022-10-15T06:50:05.562Z,12.58
2022-10-15T06:51:10.652Z,12.70
2022-10-15T06:52:13.650Z,12.84
2022-10-15T06:53:17.644Z,12.99
2022-10-15T06:54:20.617Z,13.10
2022-10-15T06:55:24.696Z,13.18
2022-10-15T06:56:28.076Z,13.25
2022-10-15T06:57:33.715Z,13.29
2022-10-15T06:58:36.884Z,13.34
2022-10-15T06:59:41.580Z,13.38
2022-10-15T07:00:44.707Z,13.45
2022-10-15T07:01:48.766Z,13.52
2022-10-15T07:02:51.925Z,13.62
2022-10-15T07:03:55.904Z,13.71
2022-10-15T07:04:58.836Z,13.78
2022-10-15T07:06:04.887Z,13.91
2022-10-15T07:07:08.036Z,14.02
2022-10-15T07:08:16.812Z,14.14
2022-10-15T07:09:23.305Z,14.24
2022-10-15T07:10:27.303Z,14.28
2022-10-15T07:11:31.474Z,14.32
2022-10-15T07:12:36.579Z,14.38
2022-10-15T07:13:42.096Z,14.47
2022-10-15T07:14:45.398Z,14.55
2022-10-15T07:15:54.162Z,14.63
2022-10-15T07:16:57.868Z,14.74
2022-10-15T07:18:02.644Z,14.86
2022-10-15T07:19:05.815Z,14.98
2022-10-15T07:20:10.369Z,15.07
2022-10-15T07:21:13.356Z,15.11
2022-10-15T07:22:17.352Z,15.15
2022-10-15T07:23:24.078Z,15.18
2022-10-15T07:24:31.084Z,15.23
2022-10-15T07:25:34.072Z,15.28
2022-10-15T07:26:38.306Z,15.34
2022-10-15T07:27:42.797Z,15.38
2022-10-15T07:28:46.901Z,15.43
2022-10-15T07:29:49.936Z,15.48
2022-10-15T07:30:54.266Z,15.53
2022-10-15T07:31:57.228Z,15.58
2022-10-15T07:33:01.409Z,15.61
2022-10-15T07:34:04.345Z,15.61
2022-10-15T07:35:08.859Z,15.64
2022-10-15T07:36:13.116Z,15.69
2022-10-15T07:37:18.936Z,15.75
2022-10-15T07:38:21.905Z,15.82
2022-10-15T07:39:25.899Z,15.86
2022-10-15T07:40:28.875Z,15.89
2022-10-15T07:41:32.942Z,15.92
2022-10-15T07:42:35.945Z,15.96
2022-10-15T07:43:41.305Z,16.01
2022-10-15T07:44:44.199Z,16.01
2022-10-15T07:45:51.158Z,16.04
2022-10-15T07:46:55.134Z,16.09
2022-10-15T07:47:58.057Z,16.13
2022-10-15T07:49:02.074Z,16.16
2022-10-15T07:50:05.528Z,16.19
2022-10-15T07:51:09.677Z,16.25
2022-10-15T07:52:12.715Z,16.34
2022-10-15T07:53:18.188Z,16.44
2022-10-15T07:54:29.272Z,16.52
2022-10-15T07:55:32.147Z,16.59
2022-10-15T07:56:36.183Z,16.65
2022-10-15T07:57:39.365Z,16.71
2022-10-15T07:58:51.867Z,16.80
2022-10-15T07:59:54.857Z,16.88
2022-10-15T08:01:01.564Z,16.92
2022-10-15T08:02:05.592Z,16.98
2022-10-15T08:03:08.506Z,17.04
2022-10-15T08:04:12.447Z,17.13
2022-10-15T08:05:16.484Z,17.22
2022-10-15T08:06:20.506Z,17.33
2022-10-15T08:07:23.528Z,17.42
2022-10-15T08:08:27.508Z,17.50
2022-10-15T08:09:31.424Z,17.57
2022-10-15T08:10:34.401Z,17.63
2022-10-15T08:11:38.413Z,17.68
2022-10-15T08:12:43.764Z,17.69
2022-10-15T08:13:49.623Z,17.72
2022-10-15T08:14:52.536Z,17.74
2022-10-15T08:15:59.380Z,17.79
2022-10-15T08:17:03.648Z,17.85
2022-10-15T08:18:07.676Z,17.94
2022-10-15T08:19:10.547Z,18.00
2022-10-15T08:20:14.706Z,18.06
2022-10-15T08:21:17.706Z,18.13
2022-10-15T08:22:22.030Z,18.17
2022-10-15T08:23:25.263Z,18.21
2022-10-15T08:24:30.363Z,18.28
2022-10-15T08:25:33.434Z,18.37
2022-10-15T08:26:38.446Z,18.46
2022-10-15T08:27:41.427Z,18.56
2022-10-15T08:28:45.406Z,18.61
2022-10-15T08:29:49.826Z,18.65
2022-10-15T08:30:53.797Z,18.69
2022-10-15T08:31:56.765Z,18.71
2022-10-15T08:33:00.733Z,18.71
2022-10-15T08:34:05.115Z,18.72
2022-10-15T08:35:08.756Z,18.72
2022-10-15T08:36:12.694Z,18.76
2022-10-15T08:37:16.646Z,18.76
2022-10-15T08:38:20.713Z,18.73
2022-10-15T08:39:23.601Z,18.71
2022-10-15T08:40:28.256Z,18.72
2022-10-15T08:41:35.966Z,18.73
2022-10-15T08:42:41.927Z,18.77
2022-10-15T08:43:47.157Z,18.79
2022-10-15T08:44:57.566Z,18.80
2022-10-15T08:46:11.192Z,18.80
2022-10-15T08:47:26.675Z,18.81
2022-10-15T08:48:32.684Z,18.83
2022-10-15T08:49:43.797Z,18.84
2022-10-15T08:50:53.306Z,18.84
2022-10-15T08:52:02.802Z,18.82
2022-10-15T08:53:07.078Z,18.82
2022-10-15T08:54:14.376Z,18.82
2022-10-15T08:55:20.198Z,18.80
2022-10-15T08:56:26.437Z,18.80
2022-10-15T08:57:38.213Z,18.82
2022-10-15T08:58:47.685Z,18.80
2022-10-15T08:59:55.415Z,18.81
2022-10-15T09:01:03.488Z,18.88
2022-10-15T09:02:14.323Z,18.95
2022-10-15T09:03:28.545Z,18.97
2022-10-15T09:04:36.257Z,18.98
2022-10-15T09:05:47.774Z,18.91
2022-10-15T09:06:55.216Z,18.89
2022-10-15T09:08:06.754Z,18.88
2022-10-15T09:09:16.264Z,18.86
2022-10-15T09:10:38.715Z,18.83
2022-10-15T09:11:49.224Z,18.79
2022-10-15T09:12:57.664Z,18.72
2022-10-15T09:14:00.665Z,18.68
2022-10-15T09:15:07.495Z,18.65
2022-10-15T09:16:15.583Z,18.61
2022-10-15T09:17:23.038Z,18.58
2022-10-15T09:18:29.194Z,18.53
2022-10-15T09:19:33.889Z,18.48
2022-10-15T09:20:39.546Z,18.43
2022-10-15T09:21:42.946Z,18.41
2022-10-15T09:22:47.554Z,18.38
2022-10-15T09:23:50.616Z,18.36
2022-10-15T09:24:54.756Z,18.35
2022-10-15T09:26:04.463Z,18.37
2022-10-15T09:27:11.707Z,18.38
2022-10-15T09:28:18.067Z,18.39
2022-10-15T09:29:25.425Z,18.40
2022-10-15T09:30:34.960Z,18.40
2022-10-15T09:31:43.597Z,18.37
2022-10-15T09:32:51.983Z,18.35
2022-10-15T09:34:04.752Z,18.39
2022-10-15T09:35:15.833Z,18.48
2022-10-15T09:36:31.208Z,18.53
2022-10-15T09:37:39.524Z,18.52
2022-10-15T09:38:49.740Z,18.54
2022-10-15T09:40:04.552Z,18.59
2022-10-15T09:41:17.487Z,18.65
2022-10-15T09:42:28.924Z,18.76
2022-10-15T09:43:36.448Z,18.86
2022-10-15T09:44:42.333Z,18.91
2022-10-15T09:45:47.910Z,18.96
2022-10-15T09:46:53.522Z,19.02
2022-10-15T09:48:11.908Z,19.14
2022-10-15T09:49:24.728Z,19.37
2022-10-15T09:50:46.705Z,19.62
2022-10-15T09:52:13.482Z,19.86
2022-10-15T09:53:28.515Z,20.09
2022-10-15T09:54:41.364Z,20.30
2022-10-15T09:55:48.692Z,20.51
2022-10-15T09:57:05.481Z,20.71
2022-10-15T09:58:16.162Z,20.86
2022-10-15T09:59:21.971Z,21.04
2022-10-15T10:00:24.965Z,21.18
2022-10-15T10:01:31.316Z,21.25
2022-10-15T10:02:34.411Z,21.22
2022-10-15T10:03:41.430Z,21.13
2022-10-15T10:04:44.867Z,20.98
2022-10-15T10:05:49.285Z,20.87
2022-10-15T10:06:54.865Z,20.77
2022-10-15T10:08:09.962Z,20.64
2022-10-15T10:09:17.946Z,20.49
2022-10-15T10:10:27.276Z,20.36
2022-10-15T10:11:48.883Z,20.26
2022-10-15T10:12:52.453Z,20.17
2022-10-15T10:14:02.754Z,20.10
2022-10-15T10:15:09.987Z,20.09
2022-10-15T10:16:15.794Z,20.08
2022-10-15T10:17:21.742Z,20.06
2022-10-15T10:18:26.717Z,20.03
2022-10-15T10:19:29.634Z,20.01
2022-10-15T10:20:36.657Z,20.00
2022-10-15T10:21:42.315Z,19.95
2022-10-15T10:22:51.232Z,19.88
2022-10-15T10:23:54.825Z,19.81
2022-10-15T10:24:58.785Z,19.76
2022-10-15T10:26:03.249Z,19.68
2022-10-15T10:27:20.345Z,19.59
2022-10-15T10:28:29.123Z,19.51
2022-10-15T10:29:38.040Z,19.46
2022-10-15T10:30:49.925Z,19.40
2022-10-15T10:31:54.494Z,19.34
2022-10-15T10:33:08.528Z,19.30
2022-10-15T10:34:17.735Z,19.26
2022-10-15T10:35:22.966Z,19.20
2022-10-15T10:36:29.012Z,19.16
2022-10-15T10:37:43.424Z,19.10
2022-10-15T10:38:56.713Z,19.03
2022-10-15T10:40:02.204Z,18.98
2022-10-15T10:41:09.693Z,18.92
2022-10-15T10:42:29.762Z,18.87
2022-10-15T10:43:39.110Z,18.79
2022-10-15T10:44:46.708Z,18.77
2022-10-15T10:45:58.893Z,18.72
2022-10-15T10:47:04.135Z,18.70
2022-10-15T10:48:22.528Z,18.67
2022-10-15T10:49:32.177Z,18.67
2022-10-15T10:50:40.839Z,18.68
2022-10-15T10:51:50.105Z,18.70
2022-10-15T10:52:54.401Z,18.71
2022-10-15T10:54:01.150Z,18.71
2022-10-15T10:55:07.927Z,18.71
2022-10-15T10:56:13.816Z,18.72
2022-10-15T10:57:20.858Z,18.74
2022-10-15T10:58:27.139Z,18.77
2022-10-15T10:59:34.928Z,18.83
2022-10-15T11:00:40.624Z,18.87
2022-10-15T11:01:44.633Z,18.89
2022-10-15T11:02:47.906Z,18.89
2022-10-15T11:03:53.305Z,18.89
2022-10-15T11:04:56.996Z,18.90
2022-10-15T11:06:09.124Z,18.93
2022-10-15T11:07:20.006Z,18.96
2022-10-15T11:08:28.025Z,18.97
2022-10-15T11:09:43.886Z,18.95
2022-10-15T11:10:51.284Z,18.90
2022-10-15T11:12:05.252Z,18.88
2022-10-15T11:13:28.897Z,18.87
2022-10-15T11:14:46.705Z,18.91
2022-10-15T11:15:57.535Z,18.93
2022-10-15T11:17:04.199Z,18.96
2022-10-15T11:18:26.947Z,18.99
2022-10-15T11:20:06.212Z,19.02
2022-10-15T11:21:07.669Z,19.06
2022-10-15T11:22:21.738Z,19.09
2022-10-15T11:23:38.167Z,19.10
2022-10-15T11:24:49.117Z,19.07
2022-10-15T11:26:02.484Z,19.04
2022-10-15T11:27:15.864Z,19.01
2022-10-15T11:28:32.186Z,19.00
2022-10-15T11:29:41.608Z,18.97
2022-10-15T11:30:51.856Z,18.93
2022-10-15T11:32:03.011Z,18.89
2022-10-15T11:33:49.814Z,18.84
2022-10-15T11:35:12.299Z,18.80
2022-10-15T11:36:39.275Z,18.74
2022-10-15T11:37:48.814Z,18.69
2022-10-15T11:39:02.262Z,18.65
2022-10-15T11:40:14.286Z,18.61
2022-10-15T11:41:30.791Z,18.58
2022-10-15T11:42:37.704Z,18.56
2022-10-15T11:43:53.003Z,18.57
2022-10-15T11:45:07.934Z,18.58
2022-10-15T11:46:23.515Z,18.61
2022-10-15T11:47:43.058Z,18.61
2022-10-15T11:48:57.074Z,18.59
2022-10-15T11:50:16.406Z,18.57
2022-10-15T11:51:27.758Z,18.59
2022-10-15T11:52:51.967Z,18.61
2022-10-15T11:54:19.843Z,18.63
2022-10-15T11:55:26.094Z,18.64
2022-10-15T11:56:35.035Z,18.66
2022-10-15T11:57:42.934Z,18.71
2022-10-15T11:58:49.185Z,18.74
2022-10-15T11:59:56.311Z,18.80
2022-10-15T12:01:01.658Z,18.85
2022-10-15T12:02:10.545Z,18.88
2022-10-15T12:03:16.869Z,18.90
2022-10-15T12:04:32.707Z,18.93
2022-10-15T12:05:40.837Z,18.96
2022-10-15T12:06:48.659Z,18.96
2022-10-15T12:07:51.667Z,18.95
2022-10-15T12:08:59.716Z,18.96
2022-10-15T12:10:10.083Z,18.97
2022-10-15T12:11:24.625Z,19.00
2022-10-15T12:12:35.131Z,19.02
2022-10-15T12:13:42.555Z,19.04
2022-10-15T12:14:51.576Z,19.04
2022-10-15T12:16:01.405Z,19.05
2022-10-15T12:17:11.153Z,19.04
2022-10-15T12:18:19.485Z,18.99
2022-10-15T12:19:26.933Z,18.95
2022-10-15T12:20:30.175Z,18.90
2022-10-15T12:21:41.326Z,18.86
2022-10-15T12:22:55.625Z,18.81
2022-10-15T12:23:59.655Z,18.73
2022-10-15T12:25:05.762Z,18.64
2022-10-15T12:26:28.008Z,18.52
2022-10-15T12:27:35.834Z,18.40
2022-10-15T12:28:48.652Z,18.34
2022-10-15T12:29:54.527Z,18.30
2022-10-15T12:31:02.184Z,18.26
2022-10-15T12:32:05.604Z,18.21
2022-10-15T12:33:26.321Z,18.20
2022-10-15T12:34:41.177Z,18.17
2022-10-15T12:35:44.113Z,18.17
2022-10-15T12:37:01.285Z,18.19
2022-10-15T12:38:22.244Z,18.23
2022-10-15T12:39:51.706Z,18.26
2022-10-15T12:40:58.067Z,18.34
2022-10-15T12:42:02.388Z,18.39
2022-10-15T12:43:14.691Z,18.47
2022-10-15T12:45:39.019Z,18.55
2022-10-15T12:46:44.575Z,18.56
2022-10-15T12:47:49.059Z,18.59
2022-10-15T12:48:57.412Z,18.61
2022-10-15T12:50:04.272Z,18.64
2022-10-15T12:51:41.697Z,18.63
2022-10-15T12:52:58.769Z,18.64
2022-10-15T12:54:02.931Z,18.62
2022-10-15T12:55:30.945Z,18.60
2022-10-15T12:56:42.020Z,18.56
2022-10-15T12:57:55.989Z,18.52
2022-10-15T12:58:59.953Z,18.47
2022-10-15T13:00:05.018Z,18.43
2022-10-15T13:01:29.572Z,18.39
2022-10-15T13:03:56.376Z,18.24
2022-10-15T13:04:59.507Z,18.18
2022-10-15T13:06:34.115Z,18.09
2022-10-15T13:07:40.942Z,18.00
2022-10-15T13:08:49.683Z,17.92
2022-10-15T13:09:53.191Z,17.84
2022-10-15T13:11:02.464Z,17.75
2022-10-15T13:12:06.654Z,17.68
2022-10-15T13:13:15.025Z,17.65
2022-10-15T13:14:25.445Z,17.60
2022-10-15T13:15:31.897Z,17.56
2022-10-15T13:16:37.204Z,17.53
2022-10-15T13:17:40.481Z,17.48
2022-10-15T13:18:49.884Z,17.47
2022-10-15T13:19:59.044Z,17.45
2022-10-15T13:21:03.350Z,17.45
2022-10-15T13:22:19.245Z,17.44
2022-10-15T13:23:31.656Z,17.43
2022-10-15T13:24:46.491Z,17.41
2022-10-15T13:25:51.284Z,17.40
2022-10-15T13:26:57.235Z,17.40
2022-10-15T13:28:00.237Z,17.39
2022-10-15T13:29:04.415Z,17.37
2022-10-15T13:30:12.805Z,17.36
2022-10-15T13:31:27.391Z,17.35
2022-10-15T13:32:35.440Z,17.34
2022-10-15T13:33:40.425Z,17.32
2022-10-15T13:34:45.266Z,17.34
2022-10-15T13:35:49.373Z,17.34
2022-10-15T13:36:54.517Z,17.33
2022-10-15T13:37:58.277Z,17.35
2022-10-15T13:39:07.177Z,17.35
2022-10-15T13:40:20.937Z,17.36
2022-10-15T13:41:27.160Z,17.36
2022-10-15T13:42:31.519Z,17.36
2022-10-15T13:43:34.488Z,17.35
2022-10-15T13:44:38.665Z,17.36
2022-10-15T13:45:46.933Z,17.36
2022-10-15T13:46:51.257Z,17.35
2022-10-15T13:47:55.113Z,17.36
2022-10-15T13:49:00.676Z,17.34
2022-10-15T13:50:14.575Z,17.35
2022-10-15T13:51:18.605Z,17.33
2022-10-15T13:52:21.825Z,17.33
2022-10-15T13:53:30.386Z,17.33
2022-10-15T13:54:33.361Z,17.34
2022-10-15T13:55:40.326Z,17.34
2022-10-15T13:56:49.414Z,17.34
2022-10-15T13:57:58.551Z,17.32
2022-10-15T13:59:02.439Z,17.31
2022-10-15T14:00:07.656Z,17.27
2022-10-15T14:01:17.687Z,17.23
2022-10-15T14:02:20.791Z,17.18
2022-10-15T14:03:25.946Z,17.15
2022-10-15T14:04:30.208Z,17.08
2022-10-15T14:05:34.395Z,17.04
2022-10-15T14:06:39.465Z,17.01
2022-10-15T14:07:42.455Z,16.99
2022-10-15T14:08:47.654Z,16.96
2022-10-15T14:09:52.258Z,16.94
2022-10-15T14:11:00.016Z,16.92
2022-10-15T14:12:06.596Z,16.91
2022-10-15T14:13:09.863Z,16.92
2022-10-15T14:14:30.473Z,16.93
2022-10-15T14:15:44.961Z,16.95
2022-10-15T14:16:49.704Z,16.95
2022-10-15T14:17:52.724Z,16.96
2022-10-15T14:18:59.195Z,16.96
2022-10-15T14:21:32.406Z,16.92
2022-10-15T14:22:35.893Z,16.94
2022-10-15T14:23:40.266Z,16.95
2022-10-15T14:24:44.713Z,16.95
2022-10-15T14:25:52.977Z,16.98
2022-10-15T14:27:03.926Z,17.01
2022-10-15T14:28:07.023Z,17.02
2022-10-15T14:29:18.631Z,17.06
2022-10-15T14:30:24.765Z,17.08
2022-10-15T14:31:33.579Z,17.09
2022-10-15T14:32:46.362Z,17.09
2022-10-15T14:33:50.421Z,17.10
2022-10-15T14:34:55.469Z,17.11
2022-10-15T14:36:06.138Z,17.10
2022-10-15T14:37:43.509Z,17.09
2022-10-15T14:38:46.424Z,17.07
2022-10-15T14:39:50.417Z,17.08
2022-10-15T14:41:04.918Z,17.12
2022-10-15T14:42:29.105Z,17.14
2022-10-15T14:43:35.663Z,17.17
2022-10-15T14:44:44.304Z,17.20
2022-10-15T14:45:55.956Z,17.22
2022-10-15T14:47:02.795Z,17.21
2022-10-15T14:48:10.372Z,17.21